createdAt,value
2018-06-03T00:01:41.324Z,78.23
2018-06-03T00:04:09.992Z,79.00
2018-06-03T00:06:38.651Z,80.37
2018-06-03T00:09:07.316Z,74.80
2018-06-03T00:11:35.958Z,69.00
2018-06-03T00:14:04.635Z,64.97
2018-06-03T00:16:33.287Z,64.03
2018-06-03T00:19:01.959Z,66.00
2018-06-03T00:21:42.072Z,65.73
2018-06-03T00:24:10.775Z,62.63
2018-06-03T00:26:39.655Z,60.50
2018-06-03T00:29:08.563Z,68.80
2018-06-03T00:31:37.447Z,71.90
2018-06-03T00:34:06.354Z,61.87
2018-06-03T00:36:44.459Z,67.50
2018-06-03T00:39:13.381Z,68.47
2018-06-03T00:41:42.287Z,72.80
2018-06-03T00:44:11.206Z,70.17
2018-06-03T00:46:40.100Z,66.87
2018-06-03T00:49:09.007Z,63.53
2018-06-03T00:51:37.890Z,74.30
2018-06-03T00:54:06.795Z,61.00
2018-06-03T00:56:47.123Z,64.07
2018-06-03T00:59:16.025Z,70.97
2018-06-03T01:01:44.981Z,68.47
2018-06-03T01:04:13.940Z,64.53
2018-06-03T01:06:42.859Z,63.73
2018-06-03T01:09:11.803Z,73.67
2018-06-03T01:11:40.715Z,72.80
2018-06-03T01:14:10.622Z,76.00
2018-06-03T01:16:39.535Z,67.03
2018-06-03T01:19:08.439Z,70.60
2018-06-03T01:21:37.355Z,68.97
2018-06-03T01:24:06.259Z,66.70
2018-06-03T01:26:35.167Z,65.27
2018-06-03T01:29:04.075Z,75.93
2018-06-03T01:31:32.972Z,75.90
2018-06-03T01:34:01.888Z,61.90
2018-06-03T01:36:30.779Z,67.47
2018-06-03T01:38:59.686Z,64.07
2018-06-03T01:41:28.594Z,74.20
2018-06-03T01:43:57.489Z,59.60
2018-06-03T01:46:26.405Z,80.07
2018-06-03T01:48:55.323Z,88.50
2018-06-03T01:51:24.227Z,83.87
2018-06-03T01:53:53.130Z,79.50
2018-06-03T01:56:22.048Z,80.80
2018-06-03T01:58:50.947Z,83.33
2018-06-03T02:01:19.629Z,83.67
2018-06-03T02:03:48.403Z,79.10
2018-06-03T02:06:17.335Z,81.37
2018-06-03T02:08:46.250Z,78.10
2018-06-03T02:11:15.179Z,85.83
2018-06-03T02:13:44.091Z,73.13
2018-06-03T02:16:12.987Z,81.90
2018-06-03T02:18:41.891Z,79.20
2018-06-03T02:21:10.794Z,75.17
2018-06-03T02:23:40.347Z,67.47
2018-06-03T02:26:09.268Z,65.60
2018-06-03T02:28:38.159Z,65.13
2018-06-03T02:31:07.083Z,60.93
2018-06-03T02:33:35.975Z,58.33
2018-06-03T02:36:04.902Z,56.73
2018-06-03T02:38:33.860Z,58.27
2018-06-03T02:41:02.811Z,59.13
2018-06-03T02:43:31.847Z,68.03
2018-06-03T02:46:00.811Z,68.70
2018-06-03T02:48:29.711Z,71.43
2018-06-03T02:50:58.620Z,70.87
2018-06-03T02:53:27.518Z,71.17
2018-06-03T02:55:56.419Z,73.60
2018-06-03T02:58:25.325Z,63.73
2018-06-03T03:00:54.512Z,60.73
2018-06-03T03:03:23.406Z,64.40
2018-06-03T03:05:52.326Z,67.23
2018-06-03T03:08:21.231Z,57.20
2018-06-03T03:10:50.149Z,45.37
2018-06-03T03:13:19.042Z,46.83
2018-06-03T03:15:47.948Z,60.83
2018-06-03T03:18:16.849Z,62.83
2018-06-03T03:20:45.778Z,64.37
2018-06-03T03:23:15.123Z,63.37
2018-06-03T03:25:44.018Z,66.13
2018-06-03T03:28:12.915Z,60.10
2018-06-03T03:30:41.822Z,61.30
2018-06-03T03:33:10.718Z,59.00
2018-06-03T03:35:39.643Z,66.43
2018-06-03T03:38:08.858Z,55.40
2018-06-03T03:40:37.767Z,62.83
2018-06-03T03:43:07.041Z,58.57
2018-06-03T03:45:36.163Z,65.30
2018-06-03T03:48:05.058Z,65.63
2018-06-03T03:50:33.952Z,61.40
2018-06-03T03:53:02.867Z,62.77
2018-06-03T03:55:31.754Z,71.10
2018-06-03T03:58:00.653Z,67.17
2018-06-03T04:00:29.552Z,68.97
2018-06-03T04:02:58.465Z,75.90
2018-06-03T04:05:27.378Z,62.87
2018-06-03T04:07:56.557Z,68.60
2018-06-03T04:10:25.478Z,69.47
2018-06-03T04:12:54.433Z,75.83
2018-06-03T04:15:23.326Z,75.80
2018-06-03T04:17:52.234Z,77.20
2018-06-03T04:20:21.159Z,78.93
2018-06-03T04:22:50.070Z,84.37
2018-06-03T04:25:18.967Z,85.33
2018-06-03T04:27:48.194Z,86.43
2018-06-03T04:30:17.083Z,86.07
2018-06-03T04:32:46.107Z,84.93
2018-06-03T04:35:14.990Z,80.67
2018-06-03T04:37:43.882Z,81.67
2018-06-03T04:40:13.031Z,78.87
2018-06-03T04:42:41.943Z,83.67
2018-06-03T04:45:10.831Z,79.57
2018-06-03T04:47:39.740Z,77.33
2018-06-03T04:50:08.618Z,82.37
2018-06-03T04:52:37.519Z,75.27
2018-06-03T04:55:06.432Z,80.17
2018-06-03T04:57:35.319Z,73.20
2018-06-03T05:00:04.211Z,69.07
2018-06-03T05:02:33.132Z,75.80
2018-06-03T05:05:02.026Z,83.13
2018-06-03T05:07:31.058Z,81.57
2018-06-03T05:09:59.951Z,80.83
2018-06-03T05:12:29.363Z,78.00
2018-06-03T05:14:58.257Z,77.27
2018-06-03T05:17:27.159Z,80.07
2018-06-03T05:19:56.078Z,80.73
2018-06-03T05:22:25.000Z,75.40
2018-06-03T05:24:53.952Z,78.77
2018-06-03T05:27:22.848Z,79.27
2018-06-03T05:29:51.755Z,75.13
2018-06-03T05:32:20.682Z,72.90
2018-06-03T05:34:49.582Z,71.77
2018-06-03T05:37:18.492Z,69.03
2018-06-03T05:39:47.388Z,69.87
2018-06-03T05:42:16.351Z,72.20
2018-06-03T05:44:45.329Z,69.80
2018-06-03T05:47:20.667Z,63.80
2018-06-03T05:49:49.601Z,68.50
2018-06-03T05:52:18.518Z,64.77
2018-06-03T05:54:47.539Z,71.30
2018-06-03T05:57:16.455Z,67.63
2018-06-03T05:59:45.366Z,73.93
2018-06-03T06:02:14.388Z,67.40
2018-06-03T06:04:43.306Z,72.07
2018-06-03T06:07:12.207Z,69.43
2018-06-03T06:09:41.116Z,68.13
2018-06-03T06:12:10.057Z,65.67
2018-06-03T06:14:38.935Z,69.60
2018-06-03T06:17:07.848Z,69.53
2018-06-03T06:19:36.854Z,68.60
2018-06-03T06:22:05.774Z,66.83
2018-06-03T06:24:34.691Z,67.87
2018-06-03T06:27:03.651Z,65.97
2018-06-03T06:29:32.551Z,67.83
2018-06-03T06:32:01.451Z,67.73
2018-06-03T06:34:30.381Z,61.93
2018-06-03T06:36:59.270Z,63.57
2018-06-03T06:39:28.198Z,65.03
2018-06-03T06:41:57.103Z,64.23
2018-06-03T06:44:26.023Z,62.47
2018-06-03T06:46:54.923Z,56.93
2018-06-03T06:49:23.830Z,61.17
2018-06-03T06:51:52.743Z,58.57
2018-06-03T06:54:21.830Z,60.47
2018-06-03T06:56:50.751Z,57.17
2018-06-03T06:59:19.670Z,53.33
2018-06-03T07:01:48.561Z,52.43
2018-06-03T07:04:17.555Z,57.67
2018-06-03T07:06:46.475Z,53.40
2018-06-03T07:09:15.343Z,50.83
2018-06-03T07:11:44.224Z,51.53
2018-06-03T07:14:13.119Z,51.53
2018-06-03T07:16:42.006Z,52.60
2018-06-03T07:19:10.903Z,45.70
2018-06-03T07:21:39.787Z,45.30
2018-06-03T07:24:08.685Z,44.87
2018-06-03T07:26:37.583Z,41.20
2018-06-03T07:29:06.476Z,42.73
2018-06-03T07:31:35.353Z,40.77
2018-06-03T07:34:04.254Z,44.60
2018-06-03T07:36:33.164Z,39.47
2018-06-03T07:39:02.063Z,41.27
2018-06-03T07:41:30.994Z,41.07
2018-06-03T07:43:59.895Z,39.67
2018-06-03T07:46:28.786Z,37.63
2018-06-03T07:48:58.593Z,34.20
2018-06-03T07:51:28.908Z,35.63
2018-06-03T07:53:59.618Z,33.60
2018-06-03T07:56:30.223Z,34.50
2018-06-03T07:59:00.881Z,37.27
2018-06-03T08:01:30.817Z,38.57
2018-06-03T08:04:00.455Z,36.10
2018-06-03T08:06:30.981Z,35.90
2018-06-03T08:09:00.679Z,37.33
2018-06-03T08:11:30.523Z,30.27
2018-06-03T08:13:59.531Z,35.80
2018-06-03T08:16:28.459Z,31.87
2018-06-03T08:18:57.511Z,30.20
2018-06-03T08:21:26.435Z,31.43
2018-06-03T08:23:55.319Z,30.30
2018-06-03T08:26:24.226Z,31.10
2018-06-03T08:28:53.120Z,32.90
2018-06-03T08:31:22.039Z,27.70
2018-06-03T08:33:50.970Z,25.13
2018-06-03T08:36:19.905Z,26.97
2018-06-03T08:38:48.893Z,27.57
2018-06-03T08:41:17.843Z,29.57
2018-06-03T08:43:46.742Z,27.70
2018-06-03T08:46:15.622Z,27.47
2018-06-03T08:48:44.502Z,27.70
2018-06-03T08:51:13.498Z,26.50
2018-06-03T08:53:42.395Z,25.67
2018-06-03T08:56:11.309Z,26.47
2018-06-03T08:58:40.223Z,28.03
2018-06-03T09:01:09.135Z,25.40
2018-06-03T09:03:38.043Z,26.15
2018-06-03T09:06:06.976Z,23.02
2018-06-03T09:08:35.878Z,19.12
2018-06-03T09:11:04.803Z,20.37
2018-06-03T09:13:33.691Z,25.27
2018-06-03T09:16:02.619Z,22.58
2018-06-03T09:18:31.510Z,20.48
2018-06-03T09:21:00.423Z,22.25
2018-06-03T09:23:29.330Z,22.95
2018-06-03T09:25:58.286Z,22.52
2018-06-03T09:28:27.176Z,21.70
2018-06-03T09:31:01.625Z,24.30
2018-06-03T09:33:30.907Z,21.35
2018-06-03T09:35:59.831Z,22.58
2018-06-03T09:38:28.723Z,16.32
2018-06-03T09:40:57.641Z,16.82
2018-06-03T09:43:26.519Z,20.12
2018-06-03T09:45:55.429Z,21.23
2018-06-03T09:48:24.318Z,21.95
2018-06-03T09:50:53.239Z,21.90
2018-06-03T09:53:22.227Z,22.67
2018-06-03T09:55:51.051Z,20.62
2018-06-03T09:58:19.955Z,19.02
2018-06-03T10:00:49.125Z,17.82
2018-06-03T10:03:18.078Z,19.92
2018-06-03T10:05:46.991Z,22.65
2018-06-03T10:08:15.889Z,21.57
2018-06-03T10:10:44.779Z,23.10
2018-06-03T10:13:13.958Z,20.47
2018-06-03T10:15:42.951Z,20.90
2018-06-03T10:18:11.640Z,20.37
2018-06-03T10:20:40.408Z,20.50
2018-06-03T10:23:09.308Z,25.13
2018-06-03T10:25:38.232Z,23.30
2018-06-03T10:28:07.190Z,23.73
2018-06-03T10:30:36.476Z,21.40
2018-06-03T10:33:05.472Z,22.50
2018-06-03T10:35:34.491Z,26.80
2018-06-03T10:38:03.433Z,23.50
2018-06-03T10:40:32.322Z,22.03
2018-06-03T10:43:01.228Z,22.60
2018-06-03T10:45:30.128Z,21.97
2018-06-03T10:47:59.029Z,23.43
2018-06-03T10:50:27.926Z,21.87
2018-06-03T10:52:56.820Z,18.77
2018-06-03T10:55:25.714Z,18.77
2018-06-03T10:57:54.623Z,20.73
2018-06-03T11:00:23.535Z,19.25
2018-06-03T11:02:52.510Z,19.40
2018-06-03T11:05:21.417Z,18.98
2018-06-03T11:07:50.482Z,20.85
2018-06-03T11:10:19.466Z,20.08
2018-06-03T11:12:48.596Z,20.23
2018-06-03T11:15:18.476Z,18.85
2018-06-03T11:17:47.590Z,17.30
2018-06-03T11:20:16.522Z,12.78
2018-06-03T11:22:45.440Z,12.45
2018-06-03T11:25:14.347Z,14.30
2018-06-03T11:27:43.361Z,14.15
2018-06-03T11:30:12.249Z,15.25
2018-06-03T11:32:41.157Z,14.75
2018-06-03T11:35:10.068Z,13.10
2018-06-03T11:37:39.924Z,12.75
2018-06-03T11:40:08.812Z,13.85
2018-06-03T11:42:37.723Z,12.98
2018-06-03T11:45:08.031Z,13.83
2018-06-03T11:47:36.940Z,13.25
2018-06-03T11:50:05.857Z,14.28
2018-06-03T11:52:40.793Z,11.50
2018-06-03T11:55:10.284Z,11.20
2018-06-03T11:57:50.439Z,12.33
2018-06-03T12:00:19.348Z,12.75
2018-06-03T12:02:48.246Z,10.93
2018-06-03T12:05:17.206Z,11.20
2018-06-03T12:07:46.185Z,9.75
2018-06-03T12:10:15.091Z,10.15
2018-06-03T12:12:43.993Z,9.08
2018-06-03T12:15:12.900Z,9.00
2018-06-03T12:17:41.786Z,10.18
2018-06-03T12:20:10.683Z,8.65
2018-06-03T12:22:39.574Z,10.68
2018-06-03T12:25:08.483Z,10.25
2018-06-03T12:27:37.373Z,9.68
2018-06-03T12:30:06.270Z,8.93
2018-06-03T12:32:35.163Z,9.73
2018-06-03T12:35:04.076Z,10.00
2018-06-03T12:37:32.966Z,10.63
2018-06-03T12:40:01.870Z,8.83
2018-06-03T12:42:30.755Z,9.90
2018-06-03T12:44:59.658Z,11.20
2018-06-03T12:47:28.569Z,10.23
2018-06-03T12:49:57.471Z,11.73
2018-06-03T12:52:26.539Z,8.78
2018-06-03T12:54:55.451Z,9.50
2018-06-03T12:57:24.338Z,9.63
2018-06-03T12:59:53.260Z,9.08
2018-06-03T13:02:22.218Z,8.63
2018-06-03T13:04:51.117Z,9.55
2018-06-03T13:07:20.000Z,10.72
2018-06-03T13:09:48.907Z,13.78
2018-06-03T13:12:17.805Z,11.95
2018-06-03T13:14:46.708Z,14.33
2018-06-03T13:17:15.740Z,13.00
2018-06-03T13:19:44.616Z,12.98
2018-06-03T13:22:13.542Z,13.75
2018-06-03T13:24:42.447Z,12.45
2018-06-03T13:27:11.351Z,12.63
2018-06-03T13:29:40.247Z,12.05
2018-06-03T13:32:09.347Z,11.35
2018-06-03T13:34:38.236Z,13.78
2018-06-03T13:37:07.215Z,11.43
2018-06-03T13:39:36.106Z,10.50
2018-06-03T13:42:05.223Z,9.75
2018-06-03T13:44:34.121Z,9.80
2018-06-03T13:47:03.019Z,9.75
2018-06-03T13:49:31.915Z,10.72
2018-06-03T13:52:00.816Z,9.65
2018-06-03T13:54:29.707Z,8.98
2018-06-03T13:56:58.611Z,10.15
2018-06-03T13:59:27.856Z,9.85
2018-06-03T14:01:56.776Z,9.23
2018-06-03T14:04:25.650Z,10.90
2018-06-03T14:06:54.563Z,11.05
2018-06-03T14:09:23.452Z,10.70
2018-06-03T14:11:52.360Z,13.93
2018-06-03T14:14:21.275Z,16.23
2018-06-03T14:16:50.176Z,14.47
2018-06-03T14:19:19.070Z,14.38
2018-06-03T14:21:47.983Z,14.00
2018-06-03T14:24:16.866Z,14.15
2018-06-03T14:26:45.762Z,14.43
2018-06-03T14:29:14.681Z,13.78
2018-06-03T14:31:43.589Z,13.43
2018-06-03T14:34:12.855Z,14.07
2018-06-03T14:36:41.787Z,16.32
2018-06-03T14:39:11.214Z,15.95
2018-06-03T14:41:40.114Z,14.98
2018-06-03T14:44:09.022Z,15.35
2018-06-03T14:46:37.902Z,14.75
2018-06-03T14:49:07.211Z,14.98
2018-06-03T14:51:36.675Z,14.58
2018-06-03T14:54:06.605Z,17.17
2018-06-03T14:56:35.491Z,17.57
2018-06-03T14:59:04.351Z,20.02
2018-06-03T15:01:33.526Z,19.40
2018-06-03T15:04:02.442Z,19.85
2018-06-03T15:06:31.396Z,17.48
2018-06-03T15:09:00.315Z,19.25
2018-06-03T15:11:29.210Z,19.62
2018-06-03T15:13:58.122Z,17.37
2018-06-03T15:16:27.043Z,18.25
2018-06-03T15:18:55.737Z,17.30
2018-06-03T15:21:24.543Z,21.25
2018-06-03T15:23:53.719Z,18.62
2018-06-03T15:26:22.603Z,20.90
2018-06-03T15:28:51.539Z,19.12
2018-06-03T15:31:20.459Z,21.17
2018-06-03T15:33:49.400Z,19.45
2018-06-03T15:36:18.266Z,19.65
2018-06-03T15:38:47.188Z,20.43
2018-06-03T15:41:16.080Z,21.45
2018-06-03T15:43:44.785Z,21.50
2018-06-03T15:46:13.547Z,20.00
2018-06-03T15:48:42.467Z,20.02
2018-06-03T15:51:11.367Z,21.07
2018-06-03T15:53:40.375Z,20.92
2018-06-03T15:56:09.271Z,19.77
2018-06-03T15:58:38.185Z,21.12
2018-06-03T16:01:07.079Z,19.73
2018-06-03T16:03:36.039Z,18.00
2018-06-03T16:06:04.918Z,17.40
2018-06-03T16:08:33.827Z,18.67
2018-06-03T16:11:02.727Z,15.30
2018-06-03T16:13:31.632Z,18.87
2018-06-03T16:16:00.519Z,17.30
2018-06-03T16:18:29.424Z,16.05
2018-06-03T16:20:58.351Z,18.98
2018-06-03T16:23:27.237Z,18.17
2018-06-03T16:25:55.914Z,17.87
2018-06-03T16:28:24.670Z,18.15
2018-06-03T16:30:53.632Z,19.25
2018-06-03T16:33:22.534Z,17.02
2018-06-03T16:35:51.468Z,16.97
2018-06-03T16:38:20.468Z,17.10
2018-06-03T16:40:49.363Z,17.40
2018-06-03T16:43:18.302Z,16.97
2018-06-03T16:45:47.203Z,19.05
2018-06-03T16:48:15.928Z,18.40
2018-06-03T16:50:44.942Z,16.67
2018-06-03T16:53:14.666Z,15.35
2018-06-03T16:55:43.715Z,18.77
2018-06-03T16:58:13.285Z,16.67
2018-06-03T17:00:42.208Z,16.17
2018-06-03T17:03:11.487Z,16.87
2018-06-03T17:05:40.566Z,15.78
2018-06-03T17:08:10.178Z,15.75
2018-06-03T17:10:39.079Z,14.90
2018-06-03T17:13:07.967Z,15.55
2018-06-03T17:15:36.863Z,17.92
2018-06-03T17:18:05.947Z,16.77
2018-06-03T17:20:35.042Z,13.50
2018-06-03T17:23:03.875Z,15.32
2018-06-03T17:25:32.767Z,12.63
2018-06-03T17:28:01.802Z,12.70
2018-06-03T17:30:30.730Z,14.98
2018-06-03T17:33:00.088Z,16.85
2018-06-03T17:35:29.133Z,16.40
2018-06-03T17:37:58.007Z,16.27
2018-06-03T17:40:27.153Z,17.90
2018-06-03T17:42:56.092Z,20.10
2018-06-03T17:45:25.202Z,17.92
2018-06-03T17:47:54.130Z,17.77
2018-06-03T17:50:23.346Z,16.23
2018-06-03T17:52:52.372Z,17.82
2018-06-03T17:55:21.259Z,14.15
2018-06-03T17:57:50.373Z,13.70
2018-06-03T18:00:19.273Z,13.50
2018-06-03T18:02:48.503Z,16.83
2018-06-03T18:05:17.411Z,15.53
2018-06-03T18:07:46.334Z,14.38
2018-06-03T18:10:15.225Z,13.93
2018-06-03T18:12:44.190Z,12.60
2018-06-03T18:15:13.092Z,13.80
2018-06-03T18:17:42.019Z,13.53
2018-06-03T18:20:10.906Z,13.40
2018-06-03T18:22:39.817Z,12.50
2018-06-03T18:25:08.723Z,12.75
2018-06-03T18:27:37.655Z,13.47
2018-06-03T18:30:06.650Z,14.50
2018-06-03T18:32:35.582Z,13.38
2018-06-03T18:35:04.487Z,14.47
2018-06-03T18:37:33.391Z,14.93
2018-06-03T18:40:02.296Z,14.60
2018-06-03T18:42:31.193Z,15.53
2018-06-03T18:45:00.319Z,13.17
2018-06-03T18:47:29.211Z,13.33
2018-06-03T18:49:58.091Z,12.97
2018-06-03T18:52:26.991Z,15.23
2018-06-03T18:54:55.883Z,15.27
2018-06-03T18:57:24.787Z,15.60
2018-06-03T18:59:53.680Z,13.63
2018-06-03T19:02:22.579Z,15.20
2018-06-03T19:04:51.471Z,16.83
2018-06-03T19:07:20.826Z,14.07
2018-06-03T19:09:49.771Z,14.47
2018-06-03T19:12:18.679Z,13.77
2018-06-03T19:14:47.559Z,13.50
2018-06-03T19:17:16.478Z,13.63
2018-06-03T19:19:45.718Z,14.47
2018-06-03T19:22:14.609Z,14.37
2018-06-03T19:24:43.509Z,13.97
2018-06-03T19:27:12.392Z,12.90
2018-06-03T19:29:41.383Z,13.50
2018-06-03T19:32:10.271Z,14.53
2018-06-03T19:34:39.258Z,14.00
2018-06-03T19:37:08.135Z,17.07
2018-06-03T19:39:38.047Z,14.97
2018-06-03T19:42:06.937Z,16.87
2018-06-03T19:44:35.848Z,14.00
2018-06-03T19:47:04.975Z,16.67
2018-06-03T19:49:33.873Z,18.27
2018-06-03T19:52:02.757Z,16.77
2018-06-03T19:54:31.654Z,15.13
2018-06-03T19:57:00.607Z,14.37
2018-06-03T19:59:30.726Z,16.67
2018-06-03T20:02:01.065Z,16.47
2018-06-03T20:04:30.073Z,15.60
2018-06-03T20:06:58.942Z,17.33
2018-06-03T20:09:27.840Z,15.97
2018-06-03T20:11:56.730Z,15.97
2018-06-03T20:14:25.660Z,16.23
2018-06-03T20:16:54.620Z,17.87
2018-06-03T20:19:23.630Z,18.37
2018-06-03T20:21:52.523Z,16.63
2018-06-03T20:24:21.237Z,15.73
2018-06-03T20:26:49.960Z,16.83
2018-06-03T20:29:18.870Z,17.50
2018-06-03T20:31:47.752Z,18.03
2018-06-03T20:34:16.650Z,19.10
2018-06-03T20:36:45.546Z,18.17
2018-06-03T20:39:14.449Z,18.27
2018-06-03T20:41:43.326Z,18.87
2018-06-03T20:44:12.218Z,18.97
2018-06-03T20:46:41.119Z,18.47
2018-06-03T20:49:10.010Z,21.27
2018-06-03T20:51:38.910Z,20.03
2018-06-03T20:54:07.809Z,18.63
2018-06-03T20:56:36.694Z,22.10
2018-06-03T20:59:05.579Z,19.27
2018-06-03T21:01:34.467Z,18.90
2018-06-03T21:04:03.351Z,19.07
2018-06-03T21:06:32.275Z,21.37
2018-06-03T21:09:01.159Z,19.13
2018-06-03T21:11:30.064Z,19.30
2018-06-03T21:13:58.963Z,20.97
2018-06-03T21:16:28.279Z,18.23
2018-06-03T21:18:56.949Z,21.03
2018-06-03T21:21:25.735Z,19.87
2018-06-03T21:23:54.635Z,18.70
2018-06-03T21:26:23.539Z,17.93
2018-06-03T21:28:52.453Z,17.47
2018-06-03T21:31:21.351Z,18.73
2018-06-03T21:33:50.257Z,19.80
2018-06-03T21:36:19.142Z,19.73
2018-06-03T21:38:48.050Z,20.90
2018-06-03T21:41:16.971Z,21.83
2018-06-03T21:43:45.892Z,19.70
2018-06-03T21:46:14.777Z,21.07
2018-06-03T21:48:43.687Z,20.10
2018-06-03T21:51:12.687Z,19.87
2018-06-03T21:53:41.627Z,18.83
2018-06-03T21:56:10.563Z,21.60
2018-06-03T21:58:39.491Z,20.83
2018-06-03T22:01:08.379Z,16.93
2018-06-03T22:03:37.292Z,20.07
2018-06-03T22:06:06.199Z,20.30
2018-06-03T22:08:35.104Z,19.63
2018-06-03T22:11:03.996Z,21.30
2018-06-03T22:13:32.906Z,18.87
2018-06-03T22:16:01.790Z,17.90
2018-06-03T22:18:30.719Z,21.57
2018-06-03T22:20:59.630Z,22.37
2018-06-03T22:23:28.541Z,20.10
2018-06-03T22:25:57.978Z,22.77
2018-06-03T22:28:26.843Z,19.97
2018-06-03T22:30:55.738Z,20.80
2018-06-03T22:33:24.639Z,18.87
2018-06-03T22:35:53.850Z,18.93
2018-06-03T22:38:22.757Z,19.97
2018-06-03T22:40:51.664Z,20.60
2018-06-03T22:43:20.570Z,26.53
2018-06-03T22:45:49.539Z,20.17
2018-06-03T22:48:18.455Z,18.60
2018-06-03T22:50:47.620Z,21.37
2018-06-03T22:53:16.526Z,17.60
2018-06-03T22:55:46.247Z,20.57
2018-06-03T22:58:15.383Z,18.00
2018-06-03T23:00:44.277Z,18.27
2018-06-03T23:03:15.477Z,21.20
2018-06-03T23:05:44.387Z,18.40
2018-06-03T23:08:13.290Z,19.83
2018-06-03T23:10:42.183Z,17.03
2018-06-03T23:13:11.078Z,18.83
2018-06-03T23:15:39.749Z,18.57
2018-06-03T23:18:08.531Z,19.70
2018-06-03T23:20:37.431Z,18.17
2018-06-03T23:23:06.334Z,19.73
2018-06-03T23:25:35.250Z,20.17
2018-06-03T23:28:04.162Z,20.73
2018-06-03T23:30:33.063Z,14.07
2018-06-03T23:33:01.951Z,16.97
2018-06-03T23:35:30.856Z,17.03
2018-06-03T23:37:59.759Z,19.03
2018-06-03T23:40:29.014Z,20.17
2018-06-03T23:42:57.963Z,22.00
2018-06-03T23:45:26.883Z,17.87
2018-06-03T23:47:55.826Z,19.77
2018-06-03T23:50:24.754Z,19.47
2018-06-03T23:52:53.670Z,18.20
2018-06-03T23:55:22.575Z,17.77
2018-06-03T23:57:51.472Z,16.80
